Time;durP1;ratioP1;P1;durP2;ratioP2;P2;SDS_P1;SDS_P2;PMS_P1;PMS_P2;Temp;Humidity;BMP_temperature;BMP_pressure;BME280_temperature;BME280_humidity;BME280_pressure;Samples;Min_cycle;Max_cycle;Signal;HPM_P1;HPM_P2
2022/03/03 00:00:54;;;;;;;148.27;79.35;;;;;;;;;;5028000;28;20522;-62
2022/03/03 00:03:20;;;;;;;153.63;78.55;;;;;;;;;;5026984;28;20068;-61
2022/03/03 00:05:46;;;;;;;143.32;70.00;;;;;;;;;;5027211;28;20171;-62
2022/03/03 00:08:13;;;;;;;146.65;74.97;;;;;;;;;;5027986;28;20045;-61
2022/03/03 00:10:39;;;;;;;147.43;76.07;;;;;;;;;;5026641;28;20492;-60
2022/03/03 00:13:06;;;;;;;147.73;76.25;;;;;;;;;;5026396;28;20072;-61
2022/03/03 00:15:34;;;;;;;149.05;78.75;;;;;;;;;;5024695;28;20073;-61
2022/03/03 00:18:01;;;;;;;129.75;66.10;;;;;;;;;;5027089;28;20037;-60
2022/03/03 00:20:27;;;;;;;129.95;67.45;;;;;;;;;;5027962;28;20459;-61
2022/03/03 00:22:55;;;;;;;120.57;57.33;;;;;;;;;;5009636;28;20098;-62
2022/03/03 00:25:21;;;;;;;133.82;73.40;;;;;;;;;;5026214;28;20049;-62
2022/03/03 00:27:47;;;;;;;127.60;69.35;;;;;;;;;;5025990;28;20398;-61
2022/03/03 00:30:13;;;;;;;151.63;78.13;;;;;;;;;;5025183;28;20049;-60
2022/03/03 00:32:40;;;;;;;130.93;73.50;;;;;;;;;;5030864;28;20602;-61
2022/03/03 00:35:08;;;;;;;118.88;66.75;;;;;;;;;;5025791;28;20038;-62
2022/03/03 00:37:34;;;;;;;134.88;74.20;;;;;;;;;;5026294;28;20040;-60
2022/03/03 00:40:00;;;;;;;134.75;71.82;;;;;;;;;;5027414;28;20065;-61
2022/03/03 00:42:26;;;;;;;119.80;67.47;;;;;;;;;;5027045;28;20080;-62
2022/03/03 00:44:52;;;;;;;110.00;58.28;;;;;;;;;;5024072;28;20042;-61
2022/03/03 00:47:18;;;;;;;119.10;65.55;;;;;;;;;;5026191;28;20495;-61
2022/03/03 00:49:44;;;;;;;120.57;66.40;;;;;;;;;;5027612;28;20056;-61
2022/03/03 00:52:10;;;;;;;118.90;64.40;;;;;;;;;;5009104;28;20049;-60
2022/03/03 00:54:36;;;;;;;107.47;62.13;;;;;;;;;;5009140;28;20044;-60
2022/03/03 00:57:02;;;;;;;116.28;68.00;;;;;;;;;;5026887;28;20037;-60
2022/03/03 00:59:28;;;;;;;113.82;66.40;;;;;;;;;;5024477;28;20049;-61
2022/03/03 01:01:54;;;;;;;113.88;67.00;;;;;;;;;;5026447;28;20470;-62
2022/03/03 01:04:22;;;;;;;105.22;60.05;;;;;;;;;;5041195;28;20487;-61
2022/03/03 01:06:48;;;;;;;120.25;68.40;;;;;;;;;;5025831;28;20049;-60
2022/03/03 01:09:14;;;;;;;116.15;69.82;;;;;;;;;;5025779;28;20076;-60
2022/03/03 01:11:40;;;;;;;109.25;68.63;;;;;;;;;;5027074;28;20128;-60
2022/03/03 01:14:06;;;;;;;115.38;68.88;;;;;;;;;;5025192;28;20049;-60
2022/03/03 01:16:32;;;;;;;123.10;72.38;;;;;;;;;;5039945;28;20037;-61
2022/03/03 01:18:59;;;;;;;119.18;70.50;;;;;;;;;;5026264;28;20454;-60
2022/03/03 01:21:25;;;;;;;119.43;71.13;;;;;;;;;;5025427;28;20049;-60
2022/03/03 01:23:51;;;;;;;115.70;66.50;;;;;;;;;;5025415;28;20041;-60
2022/03/03 01:26:18;;;;;;;108.65;64.38;;;;;;;;;;5025423;28;20142;-60
2022/03/03 01:28:45;;;;;;;122.80;72.15;;;;;;;;;;5026385;28;20033;-61
2022/03/03 01:31:11;;;;;;;114.85;66.85;;;;;;;;;;5024521;28;20056;-60
2022/03/03 01:33:37;;;;;;;105.57;57.60;;;;;;;;;;5024318;28;20056;-61
2022/03/03 01:36:03;;;;;;;113.63;66.90;;;;;;;;;;5041476;28;20033;-61
2022/03/03 01:38:29;;;;;;;101.85;57.50;;;;;;;;;;5025695;28;20770;-61
2022/03/03 01:40:56;;;;;;;104.63;60.15;;;;;;;;;;5026839;28;20053;-60
2022/03/03 01:43:22;;;;;;;102.78;64.63;;;;;;;;;;5008739;28;21325;-60
2022/03/03 01:45:48;;;;;;;72.10;42.72;;;;;;;;;;5024434;28;20051;-61
2022/03/03 01:48:14;;;;;;;100.63;63.63;;;;;;;;;;5046280;28;20065;-60
2022/03/03 01:50:40;;;;;;;102.47;63.47;;;;;;;;;;5026765;28;20440;-60
2022/03/03 01:53:06;;;;;;;100.43;63.47;;;;;;;;;;5024524;28;20045;-62
2022/03/03 01:55:33;;;;;;;95.72;58.92;;;;;;;;;;5025314;28;21189;-61
2022/03/03 01:57:59;;;;;;;98.72;61.80;;;;;;;;;;5024281;28;20052;-61
2022/03/03 02:00:26;;;;;;;94.15;58.38;;;;;;;;;;5026127;28;20041;-60
2022/03/03 02:02:52;;;;;;;106.22;66.07;;;;;;;;;;5026022;28;20044;-60
2022/03/03 02:05:18;;;;;;;110.45;68.57;;;;;;;;;;5024340;28;20508;-60
2022/03/03 02:07:44;;;;;;;114.68;70.13;;;;;;;;;;5025786;28;20479;-62
2022/03/03 02:10:10;;;;;;;114.45;68.72;;;;;;;;;;5024835;28;20037;-61
2022/03/03 02:12:36;;;;;;;105.78;65.07;;;;;;;;;;5026117;28;20033;-60
2022/03/03 02:15:03;;;;;;;112.60;69.15;;;;;;;;;;5024774;28;20037;-61
2022/03/03 02:17:29;;;;;;;99.68;58.65;;;;;;;;;;5024843;28;20038;-61
2022/03/03 02:19:56;;;;;;;104.95;65.45;;;;;;;;;;5026186;28;20041;-60
2022/03/03 02:22:22;;;;;;;82.85;50.25;;;;;;;;;;5024758;28;20183;-60
2022/03/03 02:24:48;;;;;;;96.47;58.25;;;;;;;;;;5026136;28;20045;-60
2022/03/03 02:27:14;;;;;;;90.07;55.95;;;;;;;;;;5025561;28;20060;-60
2022/03/03 02:29:40;;;;;;;86.57;55.70;;;;;;;;;;5027415;28;20463;-61
2022/03/03 02:32:07;;;;;;;82.68;51.25;;;;;;;;;;5029465;28;20038;-61
2022/03/03 02:34:34;;;;;;;84.90;55.50;;;;;;;;;;5030560;28;20041;-61
2022/03/03 02:37:00;;;;;;;87.47;56.10;;;;;;;;;;5030282;28;20235;-61
2022/03/03 02:39:26;;;;;;;87.28;54.60;;;;;;;;;;5027057;28;20061;-60
2022/03/03 02:41:53;;;;;;;80.88;50.80;;;;;;;;;;5027358;28;20112;-60
2022/03/03 02:44:19;;;;;;;94.53;59.83;;;;;;;;;;5030224;28;20037;-60
2022/03/03 02:46:45;;;;;;;96.60;59.40;;;;;;;;;;5028054;28;20084;-61
2022/03/03 02:49:11;;;;;;;80.53;50.35;;;;;;;;;;5011946;28;20052;-60
2022/03/03 02:51:37;;;;;;;89.05;56.75;;;;;;;;;;5028286;28;20395;-61
2022/03/03 02:54:04;;;;;;;92.88;56.92;;;;;;;;;;5028030;28;20040;-60
2022/03/03 02:56:30;;;;;;;101.07;59.58;;;;;;;;;;5028767;28;20380;-62
2022/03/03 02:58:56;;;;;;;97.38;59.75;;;;;;;;;;5028033;28;20040;-61
2022/03/03 03:01:22;;;;;;;86.90;48.25;;;;;;;;;;5027994;28;20471;-60
2022/03/03 03:03:48;;;;;;;97.55;57.05;;;;;;;;;;5029249;28;20501;-61
2022/03/03 03:06:14;;;;;;;99.18;57.47;;;;;;;;;;5027984;28;20091;-61
2022/03/03 03:08:41;;;;;;;94.13;53.17;;;;;;;;;;5028928;28;20045;-61
2022/03/03 03:11:07;;;;;;;111.28;62.10;;;;;;;;;;5027253;28;20049;-61
2022/03/03 03:13:36;;;;;;;84.70;49.47;;;;;;;;;;5028650;28;20451;-61
2022/03/03 03:16:02;;;;;;;98.03;56.88;;;;;;;;;;5027452;28;20041;-62
2022/03/03 03:18:28;;;;;;;100.97;55.97;;;;;;;;;;5029239;28;20037;-61
2022/03/03 03:20:54;;;;;;;101.75;58.40;;;;;;;;;;5027429;28;20048;-61
2022/03/03 03:23:22;;;;;;;108.07;61.63;;;;;;;;;;5011099;28;20104;-62
2022/03/03 03:25:48;;;;;;;106.13;61.55;;;;;;;;;;5027364;28;20045;-61
2022/03/03 03:28:15;;;;;;;89.78;50.30;;;;;;;;;;5027659;28;20037;-60
2022/03/03 03:30:41;;;;;;;106.22;64.07;;;;;;;;;;5028305;28;20046;-60
2022/03/03 03:33:08;;;;;;;98.47;61.17;;;;;;;;;;5028436;28;20125;-61
2022/03/03 03:35:34;;;;;;;91.60;54.92;;;;;;;;;;5027042;28;20195;-61
2022/03/03 03:38:01;;;;;;;99.45;61.65;;;;;;;;;;5026923;28;20553;-62
2022/03/03 03:40:27;;;;;;;88.75;50.22;;;;;;;;;;5025936;28;20065;-61
2022/03/03 03:42:53;;;;;;;85.65;51.42;;;;;;;;;;5028246;28;20076;-60
2022/03/03 03:45:19;;;;;;;87.22;55.47;;;;;;;;;;5026534;28;20049;-60
2022/03/03 03:47:45;;;;;;;92.63;55.28;;;;;;;;;;5028599;28;20045;-61
2022/03/03 03:50:12;;;;;;;87.75;54.20;;;;;;;;;;5027524;28;20045;-61
2022/03/03 03:52:39;;;;;;;91.07;57.17;;;;;;;;;;5028766;28;20041;-61
2022/03/03 03:55:07;;;;;;;85.15;55.28;;;;;;;;;;5026802;28;20045;-61
2022/03/03 03:57:33;;;;;;;87.15;54.38;;;;;;;;;;5054461;28;20038;-61
2022/03/03 04:00:00;;;;;;;79.30;50.75;;;;;;;;;;5027492;28;20442;-60
2022/03/03 04:02:26;;;;;;;77.53;52.00;;;;;;;;;;5027208;28;20108;-61
2022/03/03 04:04:52;;;;;;;76.40;51.67;;;;;;;;;;5026708;28;20041;-61
2022/03/03 04:07:19;;;;;;;76.97;45.28;;;;;;;;;;5026511;28;20033;-61
2022/03/03 04:09:45;;;;;;;68.88;41.40;;;;;;;;;;5026866;28;20136;-61
2022/03/03 04:12:11;;;;;;;79.70;47.95;;;;;;;;;;5025897;28;20484;-60
2022/03/03 04:14:37;;;;;;;87.18;53.50;;;;;;;;;;5026699;28;20052;-61
2022/03/03 04:17:04;;;;;;;76.75;46.17;;;;;;;;;;5027273;28;20521;-61
2022/03/03 04:19:30;;;;;;;80.20;47.55;;;;;;;;;;5026793;28;20042;-60
2022/03/03 04:21:56;;;;;;;77.60;47.75;;;;;;;;;;5026867;28;20128;-60
2022/03/03 04:24:22;;;;;;;76.60;49.13;;;;;;;;;;5025967;28;20057;-61
2022/03/03 04:26:49;;;;;;;81.68;49.38;;;;;;;;;;5026601;28;20045;-62
2022/03/03 04:29:15;;;;;;;86.07;52.47;;;;;;;;;;5026861;28;20052;-61
2022/03/03 04:31:41;;;;;;;86.43;55.97;;;;;;;;;;5009811;28;20049;-60
2022/03/03 04:34:07;;;;;;;88.40;57.10;;;;;;;;;;5026784;28;20037;-61
2022/03/03 04:36:33;;;;;;;97.85;61.63;;;;;;;;;;5027916;28;20163;-60
2022/03/03 04:38:59;;;;;;;93.45;59.22;;;;;;;;;;5028065;28;20143;-62
2022/03/03 04:41:26;;;;;;;92.18;55.45;;;;;;;;;;5009241;28;20099;-61
2022/03/03 04:43:52;;;;;;;85.25;50.95;;;;;;;;;;5027129;28;20042;-60
2022/03/03 04:46:18;;;;;;;91.60;57.60;;;;;;;;;;5025767;28;20056;-61
2022/03/03 04:48:44;;;;;;;84.47;53.38;;;;;;;;;;5023788;28;20124;-61
2022/03/03 04:51:10;;;;;;;92.65;58.72;;;;;;;;;;5026645;28;20073;-61
2022/03/03 04:53:36;;;;;;;91.97;58.63;;;;;;;;;;5026418;28;20447;-60
2022/03/03 04:56:02;;;;;;;88.28;56.65;;;;;;;;;;5026771;28;20618;-61
2022/03/03 04:58:28;;;;;;;89.78;56.63;;;;;;;;;;5026591;28;20091;-61
2022/03/03 05:00:54;;;;;;;94.05;56.35;;;;;;;;;;5028420;28;20101;-60
2022/03/03 05:03:20;;;;;;;79.90;51.17;;;;;;;;;;5009469;28;20519;-59
2022/03/03 05:05:46;;;;;;;91.07;57.67;;;;;;;;;;5027127;28;20045;-59
2022/03/03 05:08:12;;;;;;;93.10;58.10;;;;;;;;;;5026333;28;20124;-60
2022/03/03 05:10:38;;;;;;;74.25;44.17;;;;;;;;;;5026017;28;20508;-59
2022/03/03 05:13:05;;;;;;;79.13;47.80;;;;;;;;;;5025942;28;20038;-59
2022/03/03 05:15:31;;;;;;;84.22;55.28;;;;;;;;;;5026826;28;20045;-59
2022/03/03 05:17:58;;;;;;;88.88;56.97;;;;;;;;;;5028233;28;20047;-59
2022/03/03 05:20:25;;;;;;;84.93;51.95;;;;;;;;;;5027360;28;20553;-59
2022/03/03 05:22:51;;;;;;;87.40;54.75;;;;;;;;;;5027249;28;20045;-59
2022/03/03 05:25:17;;;;;;;98.03;60.08;;;;;;;;;;5028485;28;20388;-61
2022/03/03 05:27:43;;;;;;;100.80;62.20;;;;;;;;;;5028506;28;20041;-59
2022/03/03 05:30:10;;;;;;;86.93;45.10;;;;;;;;;;5028692;28;20494;-58
2022/03/03 05:32:36;;;;;;;96.90;59.13;;;;;;;;;;5043631;28;20117;-59
2022/03/03 05:35:04;;;;;;;101.20;62.85;;;;;;;;;;5028180;28;20088;-59
2022/03/03 05:37:30;;;;;;;95.15;55.15;;;;;;;;;;5026802;28;20438;-60
2022/03/03 05:39:57;;;;;;;102.40;61.92;;;;;;;;;;5028082;28;20478;-60
2022/03/03 05:42:24;;;;;;;102.00;64.13;;;;;;;;;;5027310;28;20463;-60
2022/03/03 05:44:51;;;;;;;105.53;63.75;;;;;;;;;;5027531;28;20100;-61
2022/03/03 05:47:17;;;;;;;101.07;60.72;;;;;;;;;;5025851;28;20068;-61
2022/03/03 05:49:44;;;;;;;103.18;56.60;;;;;;;;;;5027235;28;20044;-61
2022/03/03 05:52:12;;;;;;;105.40;64.35;;;;;;;;;;5027499;28;20052;-60
2022/03/03 05:54:38;;;;;;;108.35;66.70;;;;;;;;;;5027484;28;20041;-61
2022/03/03 05:57:10;;;;;;;102.18;61.45;;;;;;;;;;5024471;28;20484;-60
2022/03/03 05:59:37;;;;;;;110.78;63.58;;;;;;;;;;5043117;28;20041;-60
2022/03/03 06:02:03;;;;;;;108.97;64.60;;;;;;;;;;5009393;28;20056;-61
2022/03/03 06:04:31;;;;;;;105.80;65.97;;;;;;;;;;5028505;28;20140;-60
2022/03/03 06:07:00;;;;;;;99.72;58.60;;;;;;;;;;5047093;28;20116;-61
2022/03/03 06:09:30;;;;;;;95.53;56.92;;;;;;;;;;5031878;28;20045;-60
2022/03/03 06:12:03;;;;;;;95.53;53.67;;;;;;;;;;5030278;28;20069;-61
2022/03/03 06:14:40;;;;;;;95.10;51.33;;;;;;;;;;5030206;28;20373;-61
2022/03/03 06:17:07;;;;;;;102.10;60.55;;;;;;;;;;5031486;28;20045;-61
2022/03/03 06:19:39;;;;;;;102.90;61.22;;;;;;;;;;5055926;28;20034;-60
2022/03/03 06:22:06;;;;;;;101.82;57.33;;;;;;;;;;5029616;28;20107;-63
2022/03/03 06:24:34;;;;;;;107.72;64.80;;;;;;;;;;5029163;28;20043;-61
2022/03/03 06:27:00;;;;;;;98.70;60.08;;;;;;;;;;5027761;28;20088;-61
2022/03/03 06:29:26;;;;;;;105.85;66.68;;;;;;;;;;5031031;28;20546;-61
2022/03/03 06:31:53;;;;;;;108.07;63.50;;;;;;;;;;5029197;28;20128;-61
2022/03/03 06:34:20;;;;;;;99.53;61.03;;;;;;;;;;5030187;28;20395;-62
2022/03/03 06:36:46;;;;;;;105.22;64.50;;;;;;;;;;5028265;28;20038;-60
2022/03/03 06:39:13;;;;;;;106.88;64.10;;;;;;;;;;5030327;28;20525;-61
2022/03/03 06:41:39;;;;;;;111.20;65.18;;;;;;;;;;5029370;28;20057;-62
2022/03/03 06:44:07;;;;;;;111.32;66.30;;;;;;;;;;5030410;28;20462;-61
2022/03/03 06:46:33;;;;;;;101.93;58.63;;;;;;;;;;5044350;28;20047;-60
2022/03/03 06:48:59;;;;;;;98.95;57.28;;;;;;;;;;5030877;28;20037;-60
2022/03/03 06:51:26;;;;;;;103.53;56.80;;;;;;;;;;5012942;28;20096;-61
2022/03/03 06:53:55;;;;;;;115.18;70.10;;;;;;;;;;5030726;28;20041;-62
2022/03/03 06:56:25;;;;;;;114.10;67.60;;;;;;;;;;5030927;28;20077;-63
2022/03/03 06:58:54;;;;;;;116.03;68.35;;;;;;;;;;5030091;28;20041;-61
2022/03/03 07:01:21;;;;;;;114.68;68.97;;;;;;;;;;5028514;28;20056;-61
2022/03/03 07:03:47;;;;;;;120.25;71.00;;;;;;;;;;5031368;28;20104;-62
2022/03/03 07:06:13;;;;;;;116.22;67.85;;;;;;;;;;5046025;28;20049;-60
2022/03/03 07:08:40;;;;;;;112.72;66.82;;;;;;;;;;5057378;28;20049;-60
2022/03/03 07:11:07;;;;;;;108.35;63.35;;;;;;;;;;5029969;28;20157;-61
2022/03/03 07:13:33;;;;;;;91.47;50.97;;;;;;;;;;5029549;28;20484;-61
2022/03/03 07:16:23;;;;;;;97.35;56.40;;;;;;;;;;5028439;28;20077;-62
2022/03/03 07:18:53;;;;;;;101.78;58.72;;;;;;;;;;5025058;28;20442;-62
2022/03/03 07:21:25;;;;;;;91.75;55.45;;;;;;;;;;5029009;28;20057;-61
2022/03/03 07:24:00;;;;;;;106.80;63.40;;;;;;;;;;5030470;28;20253;-61
2022/03/03 07:26:26;;;;;;;91.55;52.45;;;;;;;;;;5029710;28;20041;-60
2022/03/03 07:28:54;;;;;;;104.43;60.63;;;;;;;;;;5029574;28;20072;-60
2022/03/03 07:31:23;;;;;;;100.65;59.67;;;;;;;;;;5030689;28;20049;-59
2022/03/03 07:33:56;;;;;;;105.15;64.03;;;;;;;;;;5031086;28;20049;-60
2022/03/03 07:36:24;;;;;;;104.18;63.53;;;;;;;;;;5030502;28;20053;-59
2022/03/03 07:39:00;;;;;;;102.25;62.63;;;;;;;;;;5029222;28;20449;-61
2022/03/03 07:41:27;;;;;;;99.20;60.40;;;;;;;;;;5029708;28;20080;-59
2022/03/03 07:43:58;;;;;;;85.07;48.80;;;;;;;;;;5031525;28;20087;-59
2022/03/03 07:46:24;;;;;;;89.55;55.00;;;;;;;;;;5032194;28;20399;-59
2022/03/03 07:48:53;;;;;;;96.55;61.17;;;;;;;;;;5030141;28;20041;-59
2022/03/03 07:51:19;;;;;;;100.82;61.85;;;;;;;;;;5030627;28;20053;-61
2022/03/03 07:53:46;;;;;;;90.47;55.40;;;;;;;;;;5031489;28;20034;-59
2022/03/03 07:56:13;;;;;;;91.47;55.33;;;;;;;;;;5029639;28;20037;-59
2022/03/03 07:58:42;;;;;;;85.22;53.88;;;;;;;;;;5027291;28;20499;-59
2022/03/03 08:01:09;;;;;;;84.55;49.78;;;;;;;;;;5027453;28;20821;-60
2022/03/03 08:03:35;;;;;;;92.15;59.10;;;;;;;;;;5027830;28;20510;-61
2022/03/03 08:06:01;;;;;;;78.82;45.15;;;;;;;;;;5027982;28;20473;-59
2022/03/03 08:08:29;;;;;;;88.53;58.30;;;;;;;;;;5028702;28;20426;-60
2022/03/03 08:10:59;;;;;;;90.28;58.78;;;;;;;;;;5027237;28;20041;-59
2022/03/03 08:13:27;;;;;;;94.38;55.42;;;;;;;;;;5028845;28;20163;-59
2022/03/03 08:15:53;;;;;;;89.25;57.30;;;;;;;;;;5028184;28;20099;-60
2022/03/03 08:18:20;;;;;;;89.05;56.95;;;;;;;;;;5030317;28;20052;-60
2022/03/03 08:20:47;;;;;;;92.60;57.95;;;;;;;;;;5028695;28;20059;-60
2022/03/03 08:23:13;;;;;;;76.40;43.13;;;;;;;;;;5029552;28;20461;-60
2022/03/03 08:25:39;;;;;;;84.35;56.80;;;;;;;;;;5029080;28;20056;-61
2022/03/03 08:28:06;;;;;;;72.10;48.78;;;;;;;;;;5027129;28;20046;-61
2022/03/03 08:30:34;;;;;;;76.10;53.22;;;;;;;;;;5027368;28;20492;-61
2022/03/03 08:33:03;;;;;;;67.53;45.88;;;;;;;;;;5010961;28;20044;-61
2022/03/03 08:35:36;;;;;;;72.32;52.63;;;;;;;;;;5027920;28;20042;-61
2022/03/03 08:38:07;;;;;;;66.97;51.08;;;;;;;;;;5026825;28;20510;-61
2022/03/03 08:40:34;;;;;;;70.90;51.15;;;;;;;;;;5053887;28;20069;-60
2022/03/03 08:43:02;;;;;;;66.75;48.70;;;;;;;;;;5026849;28;20033;-62
2022/03/03 08:45:29;;;;;;;63.05;46.05;;;;;;;;;;5026103;28;20048;-60
2022/03/03 08:47:57;;;;;;;58.60;45.25;;;;;;;;;;5026930;28;20045;-62
2022/03/03 08:50:27;;;;;;;65.30;49.08;;;;;;;;;;5025296;28;20033;-61
2022/03/03 08:52:54;;;;;;;62.00;45.78;;;;;;;;;;5027738;28;20073;-61
2022/03/03 08:55:20;;;;;;;62.55;48.20;;;;;;;;;;5009414;28;20390;-62
2022/03/03 08:57:46;;;;;;;56.85;43.88;;;;;;;;;;5027261;28;20041;-60
2022/03/03 09:00:13;;;;;;;62.67;49.30;;;;;;;;;;5028391;28;20037;-61
2022/03/03 09:02:43;;;;;;;58.60;45.60;;;;;;;;;;5026609;28;20057;-61
2022/03/03 09:05:09;;;;;;;56.65;42.53;;;;;;;;;;5028398;28;20053;-61
2022/03/03 09:07:35;;;;;;;57.63;41.53;;;;;;;;;;5043308;28;20468;-61
2022/03/03 09:10:02;;;;;;;53.10;38.92;;;;;;;;;;5010550;28;20037;-61
2022/03/03 09:12:28;;;;;;;53.90;41.05;;;;;;;;;;5028135;28;20044;-62
2022/03/03 09:14:54;;;;;;;56.38;42.03;;;;;;;;;;5028091;28;20045;-60
2022/03/03 09:17:20;;;;;;;53.13;38.67;;;;;;;;;;5028445;28;20101;-61
2022/03/03 09:19:47;;;;;;;55.65;45.38;;;;;;;;;;5028587;28;20137;-61
2022/03/03 09:22:13;;;;;;;56.42;44.65;;;;;;;;;;5026606;28;20602;-60
2022/03/03 09:24:39;;;;;;;54.58;44.35;;;;;;;;;;5027253;28;20041;-63
2022/03/03 09:27:05;;;;;;;54.15;42.58;;;;;;;;;;5026764;28;20049;-62
2022/03/03 09:29:34;;;;;;;61.53;45.17;;;;;;;;;;5027204;28;20037;-62
2022/03/03 09:32:02;;;;;;;50.13;39.20;;;;;;;;;;5024685;28;20040;-61
2022/03/03 09:34:28;;;;;;;53.35;45.03;;;;;;;;;;5025879;28;20110;-61
2022/03/03 09:36:55;;;;;;;53.67;43.33;;;;;;;;;;5027944;28;20118;-62
2022/03/03 09:39:21;;;;;;;54.03;44.88;;;;;;;;;;5025822;28;20555;-63
2022/03/03 09:41:47;;;;;;;50.38;40.67;;;;;;;;;;5026436;28;20045;-61
2022/03/03 09:44:14;;;;;;;48.67;41.47;;;;;;;;;;5026113;28;20557;-61
2022/03/03 09:46:40;;;;;;;51.50;42.70;;;;;;;;;;5042485;28;20636;-61
2022/03/03 09:49:07;;;;;;;51.83;40.40;;;;;;;;;;5027721;28;20041;-61
2022/03/03 09:51:33;;;;;;;51.55;41.85;;;;;;;;;;5028172;28;20578;-62
2022/03/03 09:53:59;;;;;;;47.80;38.90;;;;;;;;;;5027835;28;20042;-61
2022/03/03 09:56:25;;;;;;;45.63;35.53;;;;;;;;;;5025021;28;20132;-62
2022/03/03 09:58:51;;;;;;;49.22;41.97;;;;;;;;;;5024528;28;20122;-62
2022/03/03 10:01:17;;;;;;;45.17;37.78;;;;;;;;;;5026364;28;20547;-62
2022/03/03 10:03:47;;;;;;;47.33;38.67;;;;;;;;;;5043148;28;20431;-62
2022/03/03 10:06:13;;;;;;;45.85;39.20;;;;;;;;;;5029072;28;20570;-61
2022/03/03 10:08:39;;;;;;;45.67;37.65;;;;;;;;;;5027349;28;20829;-61
2022/03/03 10:11:08;;;;;;;45.28;35.55;;;;;;;;;;5026230;28;20046;-61
2022/03/03 10:13:44;;;;;;;46.95;39.15;;;;;;;;;;5027184;28;20470;-62
2022/03/03 10:16:10;;;;;;;50.25;40.15;;;;;;;;;;5026021;28;20042;-61
2022/03/03 10:18:37;;;;;;;48.15;37.33;;;;;;;;;;5023502;28;20043;-60
2022/03/03 10:21:04;;;;;;;50.60;42.22;;;;;;;;;;5029370;28;20518;-60
2022/03/03 10:23:35;;;;;;;51.58;40.75;;;;;;;;;;5028639;28;20044;-60
2022/03/03 10:26:04;;;;;;;50.72;42.05;;;;;;;;;;5027912;28;20040;-60
2022/03/03 10:28:34;;;;;;;52.92;43.95;;;;;;;;;;5027665;28;20033;-60
2022/03/03 10:31:00;;;;;;;51.45;41.47;;;;;;;;;;5026370;28;20048;-59
2022/03/03 10:33:35;;;;;;;48.58;39.75;;;;;;;;;;5026772;28;20064;-60
2022/03/03 10:36:08;;;;;;;48.25;42.03;;;;;;;;;;5026127;28;20037;-61
2022/03/03 10:38:43;;;;;;;47.75;41.20;;;;;;;;;;5026700;28;20578;-62
2022/03/03 10:41:25;;;;;;;50.30;41.38;;;;;;;;;;5048352;28;20076;-60
2022/03/03 10:43:52;;;;;;;43.22;34.05;;;;;;;;;;5024348;28;20379;-61
2022/03/03 10:46:18;;;;;;;46.28;36.75;;;;;;;;;;5025544;28;20079;-62
2022/03/03 10:48:44;;;;;;;41.83;35.80;;;;;;;;;;5025355;28;20100;-61
2022/03/03 10:51:14;;;;;;;39.50;33.47;;;;;;;;;;5008577;28;20049;-62
2022/03/03 10:53:42;;;;;;;36.80;27.90;;;;;;;;;;5029278;28;20055;-62
2022/03/03 10:56:09;;;;;;;38.83;31.38;;;;;;;;;;5028586;28;20388;-62
2022/03/03 10:58:54;;;;;;;45.97;35.83;;;;;;;;;;5027958;28;20038;-62
2022/03/03 11:01:24;;;;;;;43.35;35.90;;;;;;;;;;5028337;28;20479;-62
2022/03/03 11:03:51;;;;;;;42.92;33.88;;;;;;;;;;5032211;28;20041;-63
2022/03/03 11:06:28;;;;;;;41.70;34.88;;;;;;;;;;5029815;28;20120;-62
2022/03/03 11:08:55;;;;;;;43.88;39.05;;;;;;;;;;5030121;28;20085;-63
2022/03/03 11:11:22;;;;;;;42.22;36.28;;;;;;;;;;5029384;28;20034;-62
2022/03/03 11:13:49;;;;;;;43.70;35.08;;;;;;;;;;5028590;28;20042;-62
2022/03/03 11:16:25;;;;;;;41.58;36.95;;;;;;;;;;5028595;28;20049;-62
2022/03/03 11:18:51;;;;;;;45.90;38.78;;;;;;;;;;5030633;28;20403;-62
2022/03/03 11:21:18;;;;;;;42.53;36.65;;;;;;;;;;5030649;28;20144;-62
2022/03/03 11:23:45;;;;;;;45.40;36.50;;;;;;;;;;5013056;28;20046;-61
2022/03/03 11:26:22;;;;;;;45.33;37.70;;;;;;;;;;5030306;28;20128;-61
2022/03/03 11:28:58;;;;;;;38.05;32.05;;;;;;;;;;5029085;28;20116;-61
2022/03/03 11:31:27;;;;;;;42.60;34.03;;;;;;;;;;5028306;28;20091;-62
2022/03/03 11:34:12;;;;;;;38.65;34.20;;;;;;;;;;5023732;28;20041;-63
2022/03/03 11:36:49;;;;;;;39.15;33.78;;;;;;;;;;5028475;28;20056;-61
2022/03/03 11:39:34;;;;;;;36.63;30.40;;;;;;;;;;5029974;28;20116;-62
2022/03/03 11:42:15;;;;;;;36.30;30.15;;;;;;;;;;5027968;28;20087;-62
2022/03/03 11:44:41;;;;;;;35.05;31.05;;;;;;;;;;5027634;28;20192;-62
2022/03/03 11:47:22;;;;;;;34.42;28.40;;;;;;;;;;5029426;28;20441;-62
2022/03/03 11:50:05;;;;;;;36.03;29.92;;;;;;;;;;5028727;28;20121;-61
2022/03/03 11:52:33;;;;;;;34.60;30.42;;;;;;;;;;5029734;28;20056;-62
2022/03/03 11:55:19;;;;;;;34.28;29.52;;;;;;;;;;5028510;28;20534;-63
2022/03/03 11:57:45;;;;;;;36.05;30.17;;;;;;;;;;5052006;28;20041;-61
2022/03/03 12:00:17;;;;;;;35.08;30.23;;;;;;;;;;5027034;28;20346;-61
2022/03/03 12:02:53;;;;;;;35.38;30.90;;;;;;;;;;5030261;28;20080;-62
2022/03/03 12:05:29;;;;;;;35.42;30.13;;;;;;;;;;5029398;28;20099;-62
2022/03/03 12:07:59;;;;;;;33.70;30.10;;;;;;;;;;5031221;28;20128;-61
2022/03/03 12:10:25;;;;;;;34.40;29.35;;;;;;;;;;5029049;28;20045;-62
2022/03/03 12:12:51;;;;;;;33.00;28.60;;;;;;;;;;5028706;28;20487;-62
2022/03/03 12:15:17;;;;;;;34.33;29.70;;;;;;;;;;5029167;28;20577;-62
2022/03/03 12:17:46;;;;;;;33.28;29.67;;;;;;;;;;5028865;28;20029;-63
2022/03/03 12:20:24;;;;;;;33.35;29.75;;;;;;;;;;5028078;28;20053;-63
2022/03/03 12:23:09;;;;;;;32.00;28.45;;;;;;;;;;5051970;28;20505;-63
2022/03/03 12:26:00;;;;;;;31.65;27.38;;;;;;;;;;5025988;28;20068;-63
2022/03/03 12:28:46;;;;;;;32.65;28.90;;;;;;;;;;5026889;28;20044;-62
2022/03/03 12:31:27;;;;;;;32.85;29.00;;;;;;;;;;5024730;28;20053;-62
2022/03/03 12:33:57;;;;;;;33.92;28.88;;;;;;;;;;5027627;28;20041;-62
2022/03/03 12:36:23;;;;;;;35.33;29.48;;;;;;;;;;5008913;28;20042;-62
2022/03/03 12:38:49;;;;;;;33.35;29.85;;;;;;;;;;5025776;28;20057;-62
2022/03/03 12:41:15;;;;;;;33.53;29.73;;;;;;;;;;5030038;28;20057;-63
2022/03/03 12:43:42;;;;;;;32.30;28.00;;;;;;;;;;5029523;28;20099;-62
2022/03/03 12:46:08;;;;;;;30.55;27.30;;;;;;;;;;5043167;28;20276;-62
2022/03/03 12:48:34;;;;;;;29.73;26.23;;;;;;;;;;5029117;28;20402;-62
2022/03/03 12:51:00;;;;;;;30.85;27.13;;;;;;;;;;5009906;28;20041;-65
2022/03/03 12:53:33;;;;;;;30.50;25.75;;;;;;;;;;5049955;28;20471;-62
2022/03/03 12:55:59;;;;;;;28.27;25.27;;;;;;;;;;5026983;28;20443;-62
2022/03/03 12:58:30;;;;;;;29.25;25.95;;;;;;;;;;5027147;28;20550;-63
2022/03/03 13:00:56;;;;;;;30.83;26.67;;;;;;;;;;5024837;28;20041;-63
2022/03/03 13:03:23;;;;;;;27.92;24.95;;;;;;;;;;5026253;28;20046;-62
2022/03/03 13:05:50;;;;;;;25.30;22.35;;;;;;;;;;5026338;28;20060;-62
2022/03/03 13:08:20;;;;;;;24.90;22.40;;;;;;;;;;5042173;28;20033;-59
2022/03/03 13:10:46;;;;;;;23.80;21.25;;;;;;;;;;5009507;28;20046;-61
2022/03/03 13:13:13;;;;;;;23.90;21.40;;;;;;;;;;5026371;28;20037;-61
2022/03/03 13:15:39;;;;;;;22.85;20.42;;;;;;;;;;5027684;28;20045;-60
2022/03/03 13:18:08;;;;;;;19.85;17.50;;;;;;;;;;5041040;28;20360;-61
2022/03/03 13:20:42;;;;;;;21.23;18.95;;;;;;;;;;5026741;28;20033;-61
2022/03/03 13:23:09;;;;;;;21.02;18.90;;;;;;;;;;5026600;28;20048;-61
2022/03/03 13:25:36;;;;;;;22.73;20.38;;;;;;;;;;5028619;28;20488;-61
2022/03/03 13:28:03;;;;;;;20.83;18.63;;;;;;;;;;5010931;28;20168;-61
2022/03/03 13:30:31;;;;;;;21.77;18.48;;;;;;;;;;5024911;28;20037;-61
2022/03/03 13:32:58;;;;;;;20.90;18.77;;;;;;;;;;5028721;28;20120;-61
2022/03/03 13:35:26;;;;;;;20.25;18.05;;;;;;;;;;5028938;28;20045;-61
2022/03/03 13:37:52;;;;;;;19.52;17.45;;;;;;;;;;5028271;28;20483;-60
2022/03/03 13:40:26;;;;;;;19.02;16.50;;;;;;;;;;5026533;28;20061;-61
2022/03/03 13:42:56;;;;;;;18.83;16.83;;;;;;;;;;5030097;28;20085;-61
2022/03/03 13:45:27;;;;;;;17.52;15.70;;;;;;;;;;5028156;28;20046;-62
2022/03/03 13:48:26;;;;;;;20.23;16.10;;;;;;;;;;5027956;28;20042;-62
2022/03/03 13:51:01;;;;;;;18.50;16.60;;;;;;;;;;5016418;28;20080;-62
2022/03/03 13:53:29;;;;;;;19.35;15.80;;;;;;;;;;5028820;28;20049;-62
2022/03/03 13:56:04;;;;;;;17.08;15.30;;;;;;;;;;5038681;28;20489;-63
2022/03/03 13:58:30;;;;;;;17.15;14.93;;;;;;;;;;5024515;28;20065;-63
2022/03/03 14:00:56;;;;;;;25.60;15.27;;;;;;;;;;5026077;28;20688;-62
2022/03/03 14:03:33;;;;;;;17.02;14.68;;;;;;;;;;5027974;28;20041;-62
2022/03/03 14:06:03;;;;;;;16.40;13.73;;;;;;;;;;5027302;28;20040;-62
2022/03/03 14:08:30;;;;;;;15.35;13.48;;;;;;;;;;5026093;28;20493;-63
2022/03/03 14:10:59;;;;;;;14.63;13.13;;;;;;;;;;5027716;28;20161;-61
2022/03/03 14:13:28;;;;;;;14.93;13.32;;;;;;;;;;5010018;28;20042;-62
2022/03/03 14:15:56;;;;;;;14.20;12.70;;;;;;;;;;5024681;28;20438;-60
2022/03/03 14:18:24;;;;;;;14.27;12.70;;;;;;;;;;5025725;28;20072;-62